createdAt,value
2022-08-02T12:01:45.675Z,951.45
2022-08-02T12:02:39.931Z,949.70
2022-08-02T12:03:39.856Z,949.81
2022-08-02T12:04:39.959Z,950.86
2022-08-02T12:06:04.694Z,950.72
2022-08-02T12:06:39.832Z,950.40
2022-08-02T12:07:45.851Z,950.38
2022-08-02T12:08:39.769Z,950.59
2022-08-02T12:09:41.363Z,950.01
2022-08-02T12:10:39.849Z,950.77
2022-08-02T12:11:39.816Z,950.52
2022-08-02T12:12:39.923Z,949.69
2022-08-02T12:13:39.895Z,950.13
2022-08-02T12:14:39.778Z,950.05
2022-08-02T12:15:39.894Z,949.36
2022-08-02T12:16:39.821Z,949.65
2022-08-02T12:17:39.853Z,949.23
2022-08-02T12:18:39.896Z,949.54
2022-08-02T12:19:40.018Z,949.79
2022-08-02T12:20:39.839Z,949.92
2022-08-02T12:21:40.374Z,949.78
2022-08-02T12:22:41.984Z,950.20
2022-08-02T12:23:39.843Z,951.46
2022-08-02T12:24:39.841Z,949.96
2022-08-02T12:25:39.876Z,951.22
2022-08-02T12:26:40.022Z,951.19
2022-08-02T12:27:40.039Z,951.14
2022-08-02T12:28:40.041Z,950.57
2022-08-02T12:29:58.686Z,950.29
2022-08-02T12:30:40.086Z,950.02
2022-08-02T12:31:56.812Z,950.18
2022-08-02T12:32:40.112Z,949.83
2022-08-02T12:33:40.093Z,949.53
2022-08-02T12:34:40.795Z,949.51
2022-08-02T12:35:40.097Z,950.34
2022-08-02T12:36:40.126Z,950.10
2022-08-02T12:37:40.216Z,950.17
2022-08-02T12:38:40.832Z,950.43
2022-08-02T12:39:40.217Z,950.32
2022-08-02T12:40:40.227Z,950.48
2022-08-02T12:41:40.253Z,950.79
2022-08-02T12:42:40.610Z,950.94
2022-08-02T12:43:40.265Z,951.03
2022-08-02T12:44:40.248Z,950.34
2022-08-02T12:45:41.881Z,951.02
2022-08-02T12:46:42.122Z,950.40
2022-08-02T12:47:40.304Z,951.17
2022-08-02T12:48:52.122Z,949.69
2022-08-02T12:49:40.330Z,950.69
2022-08-02T12:50:40.236Z,949.66
2022-08-02T12:51:50.896Z,949.95
2022-08-02T12:52:40.302Z,950.57
2022-08-02T12:53:40.249Z,950.84
2022-08-02T12:54:40.331Z,950.29
2022-08-02T12:55:59.970Z,949.71
2022-08-02T12:56:40.261Z,950.69
2022-08-02T12:57:40.983Z,950.39
2022-08-02T12:58:40.282Z,950.39
2022-08-02T12:59:40.278Z,949.77
2022-08-02T13:00:40.278Z,950.42
2022-08-02T13:01:40.352Z,950.40
2022-08-02T13:02:40.708Z,950.33
2022-08-02T13:04:12.213Z,950.41
2022-08-02T13:04:40.354Z,950.99
2022-08-02T13:05:57.075Z,950.56
2022-08-02T13:06:43.909Z,951.24
2022-08-02T13:07:40.373Z,950.84
2022-08-02T13:08:40.306Z,951.22
2022-08-02T13:09:40.338Z,950.88
2022-08-02T13:10:40.515Z,950.41
2022-08-02T13:11:43.217Z,950.38
2022-08-02T13:12:40.457Z,950.14
2022-08-02T13:13:40.382Z,951.09
2022-08-02T13:14:42.167Z,950.49
2022-08-02T13:15:49.012Z,951.20
2022-08-02T13:16:40.345Z,951.22
2022-08-02T13:17:40.372Z,951.29
2022-08-02T13:18:40.305Z,951.71
2022-08-02T13:19:40.313Z,950.35
2022-08-02T13:20:44.721Z,951.07
2022-08-02T13:22:01.497Z,951.24
2022-08-02T13:22:51.386Z,951.30
2022-08-02T13:23:53.887Z,951.30
2022-08-02T13:24:55.945Z,950.88
2022-08-02T13:25:40.406Z,950.59
2022-08-02T13:26:40.407Z,950.66
2022-08-02T13:27:40.716Z,951.41
2022-08-02T13:28:40.921Z,951.34
2022-08-02T13:29:40.381Z,952.15
2022-08-02T13:30:40.408Z,952.14
2022-08-02T13:31:40.412Z,952.09
2022-08-02T13:32:40.771Z,951.45
2022-08-02T13:33:40.448Z,951.82
2022-08-02T13:34:40.477Z,951.65
2022-08-02T13:35:40.556Z,951.89
2022-08-02T13:36:40.568Z,951.76
2022-08-02T13:37:40.806Z,951.61
2022-08-02T13:38:40.698Z,951.42
2022-08-02T13:39:40.573Z,951.10
2022-08-02T13:41:03.152Z,951.50
2022-08-02T13:41:40.764Z,951.63
2022-08-02T13:42:40.595Z,951.27
2022-08-02T13:43:52.184Z,951.64
2022-08-02T13:44:40.646Z,951.52
2022-08-02T13:45:40.614Z,952.07
2022-08-02T13:46:45.270Z,951.96
2022-08-02T13:47:57.372Z,952.01
2022-08-02T13:48:40.656Z,952.00
2022-08-02T13:49:49.732Z,950.91
2022-08-02T13:50:40.819Z,951.96
2022-08-02T13:51:40.677Z,951.07
2022-08-02T13:52:40.754Z,951.44
2022-08-02T13:53:40.626Z,951.57
2022-08-02T13:54:40.727Z,951.75
2022-08-02T13:55:43.299Z,951.52
2022-08-02T13:56:40.682Z,951.34
2022-08-02T13:57:41.447Z,951.03
2022-08-02T13:58:40.682Z,952.21
2022-08-02T13:59:57.739Z,951.74
2022-08-02T14:00:40.676Z,951.48
2022-08-02T14:01:40.683Z,951.07
2022-08-02T14:02:40.988Z,951.80
2022-08-02T14:04:08.024Z,950.66
2022-08-02T14:04:40.703Z,950.80
2022-08-02T14:05:48.338Z,951.88
2022-08-02T14:06:40.652Z,951.04
2022-08-02T14:07:40.956Z,951.99
2022-08-02T14:08:40.754Z,951.44
2022-08-02T14:09:40.670Z,952.09
2022-08-02T14:10:40.687Z,950.85
2022-08-02T14:11:40.746Z,952.12
2022-08-02T14:12:41.207Z,951.29
2022-08-02T14:13:40.697Z,950.17
2022-08-02T14:14:40.690Z,950.37
2022-08-02T14:15:40.688Z,950.06
2022-08-02T14:16:40.723Z,950.11
2022-08-02T14:17:40.727Z,950.36
2022-08-02T14:18:40.710Z,949.71
2022-08-02T14:19:40.777Z,949.94
2022-08-02T14:20:40.783Z,950.24
2022-08-02T14:21:46.839Z,949.44
2022-08-02T14:22:40.879Z,949.82
2022-08-02T14:23:49.406Z,949.60
2022-08-02T14:24:41.038Z,950.08
2022-08-02T14:25:40.812Z,950.38
2022-08-02T14:26:40.782Z,949.76
2022-08-02T14:27:40.874Z,950.12
2022-08-02T14:28:40.798Z,949.63
2022-08-02T14:29:40.812Z,950.64
2022-08-02T14:30:40.856Z,949.86
2022-08-02T14:31:44.276Z,949.22
2022-08-02T14:32:41.035Z,948.76
2022-08-02T14:33:40.814Z,949.90
2022-08-02T14:34:40.828Z,950.55
2022-08-02T14:35:40.860Z,950.19
2022-08-02T14:36:40.817Z,949.39
2022-08-02T14:37:40.852Z,949.48
2022-08-02T14:38:40.903Z,949.90
2022-08-02T14:39:43.206Z,949.65
2022-08-02T14:40:40.822Z,950.35
2022-08-02T14:41:58.226Z,949.51
2022-08-02T14:42:41.179Z,950.62
2022-08-02T14:43:40.841Z,949.61
2022-08-02T14:44:40.842Z,948.74
2022-08-02T14:45:41.526Z,949.01
2022-08-02T14:46:40.836Z,949.20
2022-08-02T14:47:41.458Z,949.82
2022-08-02T14:48:40.849Z,949.12
2022-08-02T14:49:42.338Z,949.75
2022-08-02T14:50:40.892Z,949.16
2022-08-02T14:51:40.855Z,949.65
2022-08-02T14:52:41.287Z,949.65
2022-08-02T14:53:49.114Z,950.02
2022-08-02T14:54:40.856Z,948.76
2022-08-02T14:55:40.871Z,949.16
2022-08-02T14:56:40.853Z,949.39
2022-08-02T14:57:40.888Z,949.16
2022-08-02T14:58:40.871Z,949.06
2022-08-02T14:59:42.581Z,948.64
2022-08-02T15:00:41.728Z,949.04
2022-08-02T15:01:41.031Z,949.14
2022-08-02T15:02:41.207Z,949.97
2022-08-02T15:03:43.641Z,948.99
2022-08-02T15:04:42.734Z,950.25
2022-08-02T15:05:40.912Z,949.29
2022-08-02T15:06:40.986Z,949.22
2022-08-02T15:07:44.203Z,949.13
2022-08-02T15:08:41.019Z,949.18
2022-08-02T15:09:41.162Z,949.53
2022-08-02T15:10:41.000Z,949.48
2022-08-02T15:11:48.149Z,950.29
2022-08-02T15:12:41.494Z,949.72
2022-08-02T15:13:42.569Z,950.14
2022-08-02T15:14:40.983Z,950.18
2022-08-02T15:15:43.641Z,949.49
2022-08-02T15:16:55.352Z,949.92
2022-08-02T15:17:41.024Z,950.91
2022-08-02T15:18:41.030Z,950.43
2022-08-02T15:19:59.158Z,950.06
2022-08-02T15:20:41.483Z,949.87
2022-08-02T15:21:52.329Z,950.04
2022-08-02T15:22:41.049Z,950.42
2022-08-02T15:23:41.077Z,949.54
2022-08-02T15:24:41.023Z,949.59
2022-08-02T15:25:41.588Z,949.25
2022-08-02T15:26:41.031Z,949.30
2022-08-02T15:27:41.039Z,949.21
2022-08-02T15:28:41.055Z,949.87
2022-08-02T15:29:41.054Z,950.64
2022-08-02T15:30:41.061Z,950.72
2022-08-02T15:31:41.879Z,950.09
2022-08-02T15:32:41.093Z,949.32
2022-08-02T15:33:41.046Z,949.06
2022-08-02T15:34:41.115Z,949.82
2022-08-02T15:35:41.054Z,950.41
2022-08-02T15:36:41.057Z,951.03
2022-08-02T15:37:41.678Z,950.49
2022-08-02T15:38:41.066Z,950.14
2022-08-02T15:39:41.259Z,950.17
2022-08-02T15:40:41.066Z,949.41
2022-08-02T15:41:41.077Z,949.69
2022-08-02T15:42:41.276Z,949.77
2022-08-02T15:43:41.073Z,950.37
2022-08-02T15:44:41.088Z,951.08
2022-08-02T15:45:41.109Z,950.47
2022-08-02T15:46:41.087Z,950.97
2022-08-02T15:47:41.111Z,950.33
2022-08-02T15:48:41.178Z,950.14
2022-08-02T15:49:41.744Z,950.41
2022-08-02T15:50:41.148Z,950.54
2022-08-02T15:51:41.090Z,950.28
2022-08-02T15:52:41.566Z,950.00
2022-08-02T15:53:41.097Z,950.17
2022-08-02T15:54:41.114Z,949.42
2022-08-02T15:55:52.764Z,950.62
2022-08-02T15:56:41.115Z,950.43
2022-08-02T15:57:41.126Z,949.98
2022-08-02T15:58:44.421Z,950.80
2022-08-02T15:59:41.175Z,950.50
2022-08-02T16:00:41.128Z,950.63
